Weather at KPNX-TV Studios Heliport [CLOSED]

Public forecast

Using degrees Fahrenheit for public forecast. Weather courtesy of forecast.io.

Closest aviation weather report (METAR) to KPNX-TV Studios Heliport

Closest report is Phoenix Sky Harbor International Airport, 3.8 nm (7.1 km) ESE.

2024/07/20 05:51 (retrieved 32 minutes ago)

KPHX 200551Z 34007KT 10SM FEW100 SCT160 SCT200 BKN250 39/14 A2981 RMK AO2 SLP071 FRQ LTGCGIC DSNT S-SW CB DSNT S-SW T03890139 10444 20389 50019

Closest aviation forecast (TAF) to KPNX-TV Studios Heliport

Closest forecast is Phoenix Sky Harbor International Airport, 3.8 nm (7.1 km) ESE.

2024/07/20 06:24 (retrieved 0 seconds ago)

TAF KPHX 200523Z 2006/2112 32010KT P6SM FEW100 SCT150 BKN250 TEMPO 2006/2008 SCT100 BKN150 FM200800 24006KT P6SM SCT150 BKN200 FM201000 VRB06KT P6SM FEW150 BKN250 FM201900 27008KT P6SM FEW150 FEW250 TEMPO 2020/2024 27010G20KT FM210300 VRB06KT P6SM SCT150 BKN250